Time;durP1;ratioP1;P1;durP2;ratioP2;P2;SDS_P1;SDS_P2;PMS_P1;PMS_P2;Temp;Humidity;BMP_temperature;BMP_pressure;BME280_temperature;BME280_humidity;BME280_pressure;Samples;Min_cycle;Max_cycle;Signal;HPM_P1;HPM_P2
2022/05/02 00:00:46;;;;;;;42.88;25.77;;;;;;;;;;4984706;28;20026;-71
2022/05/02 00:03:12;;;;;;;44.90;25.65;;;;;;;;;;4985113;28;20038;-70
2022/05/02 00:05:38;;;;;;;45.63;25.23;;;;;;;;;;4983142;28;20400;-70
2022/05/02 00:08:05;;;;;;;43.60;25.15;;;;;;;;;;4984517;28;20064;-70
2022/05/02 00:10:31;;;;;;;47.05;25.70;;;;;;;;;;4984946;28;20038;-70
2022/05/02 00:12:56;;;;;;;42.08;25.48;;;;;;;;;;4984684;28;20038;-70
2022/05/02 00:15:22;;;;;;;39.42;23.10;;;;;;;;;;4983553;28;20053;-70
2022/05/02 00:17:57;;;;;;;38.33;23.40;;;;;;;;;;4984143;28;20141;-70
2022/05/02 00:20:31;;;;;;;39.78;22.73;;;;;;;;;;4984732;28;20050;-70
2022/05/02 00:22:59;;;;;;;35.65;21.75;;;;;;;;;;4984381;28;20049;-70
2022/05/02 00:25:25;;;;;;;39.58;22.95;;;;;;;;;;4983662;28;20045;-70
2022/05/02 00:27:50;;;;;;;41.17;24.17;;;;;;;;;;4983684;28;20034;-70
2022/05/02 00:30:16;;;;;;;43.17;24.52;;;;;;;;;;4966698;28;20035;-71
2022/05/02 00:32:42;;;;;;;43.97;24.33;;;;;;;;;;4984552;28;20065;-70
2022/05/02 00:35:09;;;;;;;38.80;24.20;;;;;;;;;;4983611;28;20498;-70
2022/05/02 00:37:35;;;;;;;37.30;21.58;;;;;;;;;;4983453;28;20038;-70
2022/05/02 00:40:00;;;;;;;38.75;20.88;;;;;;;;;;4984105;28;20115;-70
2022/05/02 00:42:26;;;;;;;21.65;11.65;;;;;;;;;;4984102;28;20558;-70
2022/05/02 00:44:51;;;;;;;20.38;10.18;;;;;;;;;;4983719;28;20034;-70
2022/05/02 00:47:20;;;;;;;11.00;9.38;;;;;;;;;;4983807;28;20061;-70
2022/05/02 00:49:50;;;;;;;11.60;10.18;;;;;;;;;;4983063;28;20420;-70
2022/05/02 00:52:16;;;;;;;11.35;9.93;;;;;;;;;;4983982;28;20484;-70
2022/05/02 00:54:43;;;;;;;11.82;10.13;;;;;;;;;;4983399;28;20053;-70
2022/05/02 00:57:12;;;;;;;16.33;12.07;;;;;;;;;;4982555;28;20034;-70
2022/05/02 00:59:37;;;;;;;22.65;14.77;;;;;;;;;;4982733;28;20107;-70
2022/05/02 01:02:04;;;;;;;19.70;13.55;;;;;;;;;;4983821;28;20034;-70
2022/05/02 01:04:30;;;;;;;21.95;13.82;;;;;;;;;;4983510;28;20080;-70
2022/05/02 01:07:11;;;;;;;20.83;14.15;;;;;;;;;;4983438;28;20124;-70
2022/05/02 01:09:42;;;;;;;29.70;17.50;;;;;;;;;;4983658;28;20602;-70
2022/05/02 01:12:21;;;;;;;36.97;20.57;;;;;;;;;;4982639;28;20065;-70
2022/05/02 01:14:50;;;;;;;38.30;21.05;;;;;;;;;;4982963;28;20038;-69
2022/05/02 01:17:15;;;;;;;40.92;21.02;;;;;;;;;;4983762;28;20112;-69
2022/05/02 01:19:41;;;;;;;34.45;19.80;;;;;;;;;;4983280;28;20483;-70
2022/05/02 01:22:07;;;;;;;38.35;20.95;;;;;;;;;;4982766;28;20053;-70
2022/05/02 01:24:35;;;;;;;44.03;23.15;;;;;;;;;;4983515;28;20032;-70
2022/05/02 01:27:01;;;;;;;50.17;25.38;;;;;;;;;;4982980;28;20048;-70
2022/05/02 01:29:27;;;;;;;52.17;25.80;;;;;;;;;;4983664;28;20042;-70
2022/05/02 01:31:54;;;;;;;50.15;25.23;;;;;;;;;;4983143;28;20044;-70
2022/05/02 01:34:20;;;;;;;53.65;27.48;;;;;;;;;;4982129;28;20093;-70
2022/05/02 01:36:45;;;;;;;51.38;25.65;;;;;;;;;;4982571;28;20034;-70
2022/05/02 01:39:11;;;;;;;50.13;26.38;;;;;;;;;;4973688;28;20922;-70
2022/05/02 01:41:36;;;;;;;56.05;28.38;;;;;;;;;;4982675;28;20554;-70
2022/05/02 01:44:01;;;;;;;56.13;28.80;;;;;;;;;;4981682;28;20048;-70
2022/05/02 01:46:27;;;;;;;54.92;27.58;;;;;;;;;;4982131;28;20526;-70
2022/05/02 01:48:52;;;;;;;59.58;28.73;;;;;;;;;;4980009;28;20034;-70
2022/05/02 01:51:18;;;;;;;51.33;26.08;;;;;;;;;;4982882;28;20050;-70
2022/05/02 01:53:43;;;;;;;65.55;28.60;;;;;;;;;;4982523;28;20041;-70
2022/05/02 01:56:09;;;;;;;54.75;27.60;;;;;;;;;;4981321;28;20042;-70
2022/05/02 01:58:34;;;;;;;56.25;26.50;;;;;;;;;;4964708;28;20113;-70
2022/05/02 02:00:59;;;;;;;53.50;27.55;;;;;;;;;;4982938;28;20100;-70
2022/05/02 02:03:25;;;;;;;60.10;26.58;;;;;;;;;;4982904;28;20034;-70
2022/05/02 02:05:51;;;;;;;53.03;26.55;;;;;;;;;;4981322;28;20637;-70
2022/05/02 02:08:24;;;;;;;58.33;28.17;;;;;;;;;;4982260;28;20042;-70
2022/05/02 02:10:51;;;;;;;60.15;26.52;;;;;;;;;;4982712;28;20049;-70
2022/05/02 02:13:17;;;;;;;68.25;29.38;;;;;;;;;;4982583;28;20126;-70
2022/05/02 02:15:43;;;;;;;60.92;27.83;;;;;;;;;;4982105;28;20132;-70
2022/05/02 02:18:09;;;;;;;57.90;27.23;;;;;;;;;;4981651;28;20034;-70
2022/05/02 02:20:35;;;;;;;45.00;24.33;;;;;;;;;;4981822;28;20499;-70
2022/05/02 02:23:00;;;;;;;49.60;25.88;;;;;;;;;;4982335;28;20104;-70
2022/05/02 02:25:26;;;;;;;54.97;26.00;;;;;;;;;;4981268;28;20034;-70
2022/05/02 02:27:53;;;;;;;45.70;23.42;;;;;;;;;;4981760;28;20403;-70
2022/05/02 02:30:19;;;;;;;47.42;23.60;;;;;;;;;;4979630;28;20081;-70
2022/05/02 02:32:45;;;;;;;46.47;22.85;;;;;;;;;;4982278;28;20510;-70
2022/05/02 02:35:10;;;;;;;48.88;23.63;;;;;;;;;;4981502;28;20048;-70
2022/05/02 02:37:35;;;;;;;49.90;26.65;;;;;;;;;;4981919;28;20038;-70
2022/05/02 02:40:01;;;;;;;47.70;24.48;;;;;;;;;;4981093;28;20064;-70
2022/05/02 02:42:26;;;;;;;42.78;24.15;;;;;;;;;;4981904;28;20053;-70
2022/05/02 02:44:52;;;;;;;42.42;22.83;;;;;;;;;;4981518;28;20038;-70
2022/05/02 02:47:17;;;;;;;40.42;22.30;;;;;;;;;;4981990;28;20042;-70
2022/05/02 02:49:43;;;;;;;42.67;22.63;;;;;;;;;;4980999;28;20038;-70
2022/05/02 02:52:08;;;;;;;39.22;21.00;;;;;;;;;;4981520;28;20038;-70
2022/05/02 02:54:35;;;;;;;40.40;21.05;;;;;;;;;;4982094;28;20038;-70
2022/05/02 02:57:01;;;;;;;45.28;22.33;;;;;;;;;;4981209;28;20053;-69
2022/05/02 02:59:26;;;;;;;50.63;24.85;;;;;;;;;;4981646;28;20046;-69
2022/05/02 03:01:53;;;;;;;37.53;20.42;;;;;;;;;;4980650;28;20072;-69
2022/05/02 03:07:03;;;;;;;23.10;15.52;;;;;;;;;;4980829;28;20042;-70
2022/05/02 03:09:29;;;;;;;16.42;12.18;;;;;;;;;;4981518;28;20054;-70
2022/05/02 03:11:54;;;;;;;15.63;11.52;;;;;;;;;;4981209;28;20089;-70
2022/05/02 03:14:20;;;;;;;16.02;11.63;;;;;;;;;;4981367;28;20076;-70
2022/05/02 03:16:45;;;;;;;33.10;13.73;;;;;;;;;;4980893;28;20058;-70
2022/05/02 03:19:11;;;;;;;21.85;14.80;;;;;;;;;;4981361;28;20026;-70
2022/05/02 03:21:37;;;;;;;19.63;14.77;;;;;;;;;;4985194;28;20515;-70
2022/05/02 03:24:02;;;;;;;27.23;13.70;;;;;;;;;;4984608;28;20042;-70
2022/05/02 03:26:28;;;;;;;17.83;12.70;;;;;;;;;;4985035;28;20049;-70
2022/05/02 03:28:53;;;;;;;38.95;13.30;;;;;;;;;;4985504;28;20046;-70
2022/05/02 03:31:18;;;;;;;71.10;12.60;;;;;;;;;;4985426;28;20045;-70
2022/05/02 03:33:44;;;;;;;51.83;13.70;;;;;;;;;;4984368;28;20034;-70
2022/05/02 03:36:09;;;;;;;81.10;15.20;;;;;;;;;;4984922;28;20061;-69
2022/05/02 03:38:35;;;;;;;29.85;14.30;;;;;;;;;;4984957;28;20030;-69
2022/05/02 03:41:00;;;;;;;24.75;15.15;;;;;;;;;;4982335;28;20558;-70
2022/05/02 03:43:26;;;;;;;28.15;16.42;;;;;;;;;;4984993;28;20042;-69
2022/05/02 03:45:51;;;;;;;35.55;18.05;;;;;;;;;;4983592;28;20050;-69
2022/05/02 03:48:16;;;;;;;84.22;18.70;;;;;;;;;;4984820;28;20030;-69
2022/05/02 03:50:42;;;;;;;36.65;19.55;;;;;;;;;;4985273;28;20048;-69
2022/05/02 03:53:08;;;;;;;37.38;20.27;;;;;;;;;;4984895;28;21053;-69
2022/05/02 03:55:34;;;;;;;44.72;18.80;;;;;;;;;;4981764;28;20046;-69
2022/05/02 03:57:59;;;;;;;60.13;20.10;;;;;;;;;;4966688;28;20069;-69
2022/05/02 04:00:24;;;;;;;43.85;18.15;;;;;;;;;;4984934;28;20065;-69
2022/05/02 04:02:50;;;;;;;123.03;20.05;;;;;;;;;;4984760;28;20042;-69
2022/05/02 04:05:15;;;;;;;80.63;19.75;;;;;;;;;;4984470;28;20097;-69
2022/05/02 04:07:41;;;;;;;218.40;21.27;;;;;;;;;;4984010;28;20033;-69
2022/05/02 04:10:06;;;;;;;38.50;18.23;;;;;;;;;;4984633;28;20038;-69
2022/05/02 04:12:39;;;;;;;257.23;17.77;;;;;;;;;;4984889;28;20046;-69
2022/05/02 04:15:06;;;;;;;146.32;16.33;;;;;;;;;;4982981;28;20167;-69
2022/05/02 04:17:31;;;;;;;38.75;16.38;;;;;;;;;;4982870;28;20129;-69
2022/05/02 04:19:57;;;;;;;108.53;17.05;;;;;;;;;;4982867;28;20209;-69
2022/05/02 04:22:22;;;;;;;65.10;15.45;;;;;;;;;;4983209;28;20125;-69
2022/05/02 04:24:48;;;;;;;72.28;16.20;;;;;;;;;;4983440;28;20072;-68
2022/05/02 04:27:13;;;;;;;59.67;16.23;;;;;;;;;;4982820;28;20053;-68
2022/05/02 04:29:38;;;;;;;106.25;16.13;;;;;;;;;;4982563;28;20782;-68
2022/05/02 04:32:04;;;;;;;49.42;14.40;;;;;;;;;;4982954;28;20121;-69
2022/05/02 04:34:30;;;;;;;89.65;14.35;;;;;;;;;;4983376;28;20100;-68
2022/05/02 04:36:55;;;;;;;57.67;14.30;;;;;;;;;;4982664;28;20081;-70
2022/05/02 04:39:20;;;;;;;66.22;14.52;;;;;;;;;;4982615;28;20074;-70
2022/05/02 04:41:46;;;;;;;45.25;14.32;;;;;;;;;;4983174;28;20038;-69
2022/05/02 04:44:11;;;;;;;38.38;14.65;;;;;;;;;;4983787;28;20145;-70
2022/05/02 04:46:37;;;;;;;38.55;14.57;;;;;;;;;;4983740;28;20061;-70
2022/05/02 04:49:02;;;;;;;29.80;14.38;;;;;;;;;;4965352;28;20040;-70
2022/05/02 04:51:28;;;;;;;30.70;14.82;;;;;;;;;;4981072;28;20046;-70
2022/05/02 04:53:53;;;;;;;52.65;14.50;;;;;;;;;;4965090;28;20109;-69
2022/05/02 04:56:19;;;;;;;26.50;14.68;;;;;;;;;;4982341;28;20088;-69
2022/05/02 04:58:44;;;;;;;63.75;13.70;;;;;;;;;;4982765;28;20026;-69
2022/05/02 05:01:10;;;;;;;24.48;13.95;;;;;;;;;;4982133;28;20455;-69
2022/05/02 05:03:36;;;;;;;51.95;14.13;;;;;;;;;;4982515;28;20057;-69
2022/05/02 05:06:02;;;;;;;33.75;13.70;;;;;;;;;;4982320;28;20066;-69
2022/05/02 05:08:27;;;;;;;63.30;13.52;;;;;;;;;;4984003;28;20064;-69
2022/05/02 05:11:04;;;;;;;83.30;13.75;;;;;;;;;;4983427;28;20501;-69
2022/05/02 05:13:42;;;;;;;89.07;13.88;;;;;;;;;;4982531;28;20476;-70
2022/05/02 05:16:24;;;;;;;49.75;14.00;;;;;;;;;;4981117;28;20081;-68
2022/05/02 05:19:09;;;;;;;;;;;;;;;;;;4982316;28;20034;-69
2022/05/02 05:21:48;;;;;;;34.50;12.38;;;;;;;;;;4981253;28;19956;-69
2022/05/02 05:24:28;;;;;;;51.17;13.02;;;;;;;;;;4980573;28;20034;-69
2022/05/02 05:27:10;;;;;;;61.75;14.13;;;;;;;;;;4980885;28;20030;-69
2022/05/02 05:29:46;;;;;;;37.58;13.20;;;;;;;;;;4981497;28;20126;-69
2022/05/02 05:32:21;;;;;;;42.22;12.63;;;;;;;;;;4981256;28;20090;-69
2022/05/02 05:35:06;;;;;;;16.95;12.50;;;;;;;;;;4981981;28;20046;-69
2022/05/02 05:37:54;;;;;;;85.90;13.13;;;;;;;;;;4982957;28;20026;-70
2022/05/02 05:40:35;;;;;;;90.97;13.23;;;;;;;;;;4983111;28;20116;-69
2022/05/02 05:43:00;;;;;;;140.75;13.35;;;;;;;;;;4981112;28;20050;-69
2022/05/02 05:45:46;;;;;;;69.18;11.98;;;;;;;;;;4981431;28;20044;-69
2022/05/02 05:48:21;;;;;;;71.25;11.95;;;;;;;;;;4982522;28;20042;-69
2022/05/02 05:51:15;;;;;;;66.70;12.70;;;;;;;;;;4982741;28;20042;-70
2022/05/02 05:53:54;;;;;;;26.88;11.38;;;;;;;;;;4981666;28;20030;-70
2022/05/02 05:56:28;;;;;;;30.73;10.35;;;;;;;;;;4981161;28;20093;-70
2022/05/02 05:59:37;;;;;;;65.25;11.20;;;;;;;;;;4982039;28;20034;-70
2022/05/02 06:02:14;;;;;;;107.22;13.32;;;;;;;;;;4953530;28;20539;-70
2022/05/02 06:04:42;;;;;;;121.45;14.32;;;;;;;;;;4982448;28;20117;-70
2022/05/02 06:07:08;;;;;;;64.20;12.30;;;;;;;;;;4981235;28;20124;-70
2022/05/02 06:09:36;;;;;;;49.13;12.98;;;;;;;;;;4981760;28;20121;-70
2022/05/02 06:12:04;;;;;;;51.92;12.10;;;;;;;;;;4980777;28;20553;-70
2022/05/02 06:18:27;;;;;;;19.90;12.25;;;;;;;;;;4982298;28;20041;-70
2022/05/02 06:20:12;;;;;;;28.08;13.13;;;;;;;;;;4980932;28;20085;-70
2022/05/02 06:22:39;;;;;;;22.17;14.13;;;;;;;;;;4981409;28;20057;-70
2022/05/02 06:25:05;;;;;;;28.30;15.48;;;;;;;;;;4981718;28;20507;-70
2022/05/02 06:27:33;;;;;;;55.58;15.90;;;;;;;;;;4980056;28;20064;-70
2022/05/02 06:30:03;;;;;;;101.28;16.20;;;;;;;;;;4979715;28;20034;-70
2022/05/02 06:32:30;;;;;;;61.40;16.50;;;;;;;;;;4979450;28;20113;-70
2022/05/02 06:34:56;;;;;;;94.28;16.88;;;;;;;;;;4980144;28;20192;-70
2022/05/02 06:37:50;;;;;;;65.22;17.95;;;;;;;;;;4979812;28;20414;-69
2022/05/02 06:40:41;;;;;;;59.78;16.83;;;;;;;;;;4978718;28;20062;-71
2022/05/02 06:43:25;;;;;;;34.00;17.13;;;;;;;;;;4980885;28;20042;-70
2022/05/02 06:46:28;;;;;;;82.90;16.90;;;;;;;;;;4980984;28;20134;-71
2022/05/02 06:49:02;;;;;;;61.90;18.45;;;;;;;;;;4981203;28;20053;-70
2022/05/02 06:51:36;;;;;;;29.80;17.40;;;;;;;;;;4979129;28;20034;-71
2022/05/02 06:54:39;;;;;;;48.20;18.35;;;;;;;;;;4979406;28;20081;-71
2022/05/02 06:57:35;;;;;;;27.67;17.90;;;;;;;;;;4981011;28;20038;-70
2022/05/02 07:00:00;;;;;;;25.73;17.23;;;;;;;;;;4981553;28;20070;-70
2022/05/02 07:03:10;;;;;;;26.98;17.35;;;;;;;;;;4982734;28;20073;-68
2022/05/02 07:05:51;;;;;;;23.85;16.27;;;;;;;;;;4980903;28;20221;-70
2022/05/02 07:08:32;;;;;;;25.98;17.58;;;;;;;;;;5064858;23;20017;-69
2022/05/02 07:11:03;;;;;;;26.42;17.50;;;;;;;;;;4999670;28;20046;-69
2022/05/02 07:13:58;;;;;;;21.60;15.27;;;;;;;;;;4999856;28;20046;-70
2022/05/02 07:16:25;;;;;;;22.65;15.40;;;;;;;;;;4999897;28;20132;-70
2022/05/02 07:19:40;;;;;;;23.05;16.27;;;;;;;;;;5000069;28;20769;-70
2022/05/02 07:22:09;;;;;;;20.00;14.75;;;;;;;;;;5000757;28;20053;-71
2022/05/02 07:24:41;;;;;;;23.08;15.73;;;;;;;;;;4999555;28;20057;-70
2022/05/02 07:27:14;;;;;;;20.65;14.73;;;;;;;;;;5000706;28;20120;-71
2022/05/02 07:29:40;;;;;;;19.05;14.18;;;;;;;;;;5000563;28;20037;-71
2022/05/02 07:32:09;;;;;;;23.33;15.48;;;;;;;;;;5001087;28;20394;-71
2022/05/02 07:34:36;;;;;;;19.02;14.95;;;;;;;;;;5000622;28;20050;-70
2022/05/02 07:37:02;;;;;;;20.13;15.10;;;;;;;;;;4999772;28;20131;-70
2022/05/02 07:39:30;;;;;;;24.23;16.20;;;;;;;;;;4999921;28;20121;-70
2022/05/02 07:42:03;;;;;;;23.20;16.63;;;;;;;;;;5000166;28;20606;-70
2022/05/02 07:44:33;;;;;;;21.83;15.20;;;;;;;;;;5001292;28;20038;-70
2022/05/02 07:47:01;;;;;;;21.42;16.00;;;;;;;;;;4999229;28;20041;-70
2022/05/02 07:49:28;;;;;;;21.80;15.40;;;;;;;;;;5000340;28;20125;-70
2022/05/02 07:51:56;;;;;;;25.40;18.10;;;;;;;;;;5000617;28;20057;-69
2022/05/02 07:54:26;;;;;;;25.70;17.52;;;;;;;;;;5000914;28;20038;-70
2022/05/02 07:56:57;;;;;;;25.05;18.48;;;;;;;;;;5000342;28;20044;-70
2022/05/02 07:59:29;;;;;;;24.98;17.88;;;;;;;;;;4999275;28;20061;-70
2022/05/02 08:01:56;;;;;;;25.25;18.13;;;;;;;;;;5000704;28;20045;-69
2022/05/02 08:04:22;;;;;;;25.75;18.48;;;;;;;;;;5000275;28;20076;-69
2022/05/02 08:06:48;;;;;;;25.95;17.85;;;;;;;;;;5002350;28;20048;-69
2022/05/02 08:09:56;;;;;;;27.75;18.85;;;;;;;;;;5001652;28;20034;-69
2022/05/02 08:12:30;;;;;;;26.95;18.33;;;;;;;;;;4965891;28;20920;-69
2022/05/02 08:15:21;;;;;;;26.02;17.88;;;;;;;;;;5002876;28;20034;-69
2022/05/02 08:17:52;;;;;;;26.38;17.45;;;;;;;;;;5003245;28;20046;-69
2022/05/02 08:20:24;;;;;;;23.83;16.97;;;;;;;;;;5004233;28;20038;-69
2022/05/02 08:29:00;;;;;;;22.02;15.88;;;;;;;;;;5004714;28;20426;-69
2022/05/02 08:35:17;;;;;;;21.80;16.60;;;;;;;;;;5004479;28;20501;-69
2022/05/02 08:37:52;;;;;;;22.10;16.58;;;;;;;;;;5003397;28;20038;-68
2022/05/02 08:44:44;;;;;;;21.15;15.38;;;;;;;;;;5003512;28;20076;-68
2022/05/02 08:47:31;;;;;;;21.30;16.13;;;;;;;;;;4972771;28;20057;-68
2022/05/02 08:50:21;;;;;;;21.70;15.30;;;;;;;;;;5003171;28;20069;-70
2022/05/02 08:52:52;;;;;;;24.90;16.90;;;;;;;;;;5002337;28;20471;-70
2022/05/02 08:55:39;;;;;;;20.98;14.82;;;;;;;;;;5003240;28;20034;-70
2022/05/02 08:58:42;;;;;;;15.48;11.32;;;;;;;;;;5003399;28;20046;-70
2022/05/02 09:01:40;;;;;;;17.80;13.32;;;;;;;;;;5002479;28;20410;-71
2022/05/02 09:04:44;;;;;;;17.63;13.82;;;;;;;;;;5001926;28;20033;-73
2022/05/02 09:07:28;;;;;;;19.95;14.55;;;;;;;;;;4995652;28;20141;-70
2022/05/02 09:10:05;;;;;;;22.58;14.85;;;;;;;;;;5003075;28;20459;-70
2022/05/02 09:13:07;;;;;;;19.35;13.70;;;;;;;;;;5003175;28;20065;-71
2022/05/02 09:15:39;;;;;;;20.38;14.68;;;;;;;;;;5001941;28;20108;-71
2022/05/02 09:18:51;;;;;;;21.02;14.35;;;;;;;;;;5001792;28;20042;-71
2022/05/02 09:25:10;;;;;;;29.02;16.10;;;;;;;;;;5001770;28;20118;-72
2022/05/02 09:28:01;;;;;;;20.02;14.52;;;;;;;;;;5002400;28;20034;-70
2022/05/02 09:31:04;;;;;;;17.58;13.70;;;;;;;;;;5002572;28;20124;-70
2022/05/02 09:33:54;;;;;;;17.33;12.88;;;;;;;;;;5002497;28;20034;-70
2022/05/02 09:36:44;;;;;;;16.90;13.65;;;;;;;;;;5001809;28;20128;-72
2022/05/02 09:39:24;;;;;;;13.93;11.85;;;;;;;;;;5002604;28;20042;-72
2022/05/02 09:42:31;;;;;;;17.17;14.43;;;;;;;;;;5002244;28;20132;-71
2022/05/02 09:51:12;;;;;;;18.63;13.57;;;;;;;;;;5001676;28;20081;-69
2022/05/02 09:53:38;;;;;;;18.17;14.65;;;;;;;;;;5001813;28;20272;-71
2022/05/02 09:59:04;;;;;;;15.98;11.77;;;;;;;;;;5000572;28;20034;-70
2022/05/02 10:01:31;;;;;;;15.55;12.07;;;;;;;;;;5002037;28;20122;-70
2022/05/02 10:04:18;;;;;;;16.77;12.27;;;;;;;;;;5002842;28;20034;-69
2022/05/02 10:07:05;;;;;;;16.10;12.63;;;;;;;;;;5001721;28;20530;-69
2022/05/02 10:09:48;;;;;;;14.65;11.65;;;;;;;;;;5001522;28;20103;-70
2022/05/02 10:12:26;;;;;;;13.98;10.27;;;;;;;;;;5001914;28;20446;-69
2022/05/02 10:15:00;;;;;;;14.95;11.88;;;;;;;;;;5002254;28;20042;-70
2022/05/02 10:17:38;;;;;;;13.85;10.27;;;;;;;;;;5000907;28;20042;-71
2022/05/02 10:20:15;;;;;;;15.73;11.80;;;;;;;;;;5001177;28;20056;-70
2022/05/02 10:22:58;;;;;;;14.32;12.05;;;;;;;;;;5001843;28;20037;-70
2022/05/02 10:25:41;;;;;;;12.30;10.60;;;;;;;;;;4983727;28;20128;-70
2022/05/02 10:28:24;;;;;;;14.63;11.68;;;;;;;;;;5001195;28;20081;-69
2022/05/02 10:31:28;;;;;;;14.82;11.35;;;;;;;;;;4986159;28;20355;-69
2022/05/02 10:33:54;;;;;;;12.65;10.90;;;;;;;;;;5000191;28;20187;-70
2022/05/02 10:36:47;;;;;;;11.85;9.65;;;;;;;;;;4996840;28;20103;-71
2022/05/02 10:39:32;;;;;;;9.98;8.77;;;;;;;;;;4996534;28;20502;-69
2022/05/02 10:41:58;;;;;;;13.07;9.35;;;;;;;;;;5000223;28;20050;-69
2022/05/02 10:44:28;;;;;;;11.70;9.27;;;;;;;;;;5001313;28;20043;-70
2022/05/02 10:47:01;;;;;;;17.58;10.15;;;;;;;;;;4998581;28;20041;-70
2022/05/02 10:49:44;;;;;;;9.43;8.43;;;;;;;;;;5000420;28;20033;-71
2022/05/02 10:52:25;;;;;;;12.38;9.30;;;;;;;;;;4998294;28;20050;-69
2022/05/02 10:55:02;;;;;;;12.77;9.93;;;;;;;;;;4999794;28;20510;-71
2022/05/02 10:57:31;;;;;;;11.90;10.70;;;;;;;;;;5000144;28;20569;-70
2022/05/02 11:00:04;;;;;;;14.73;11.35;;;;;;;;;;5001046;28;20139;-72
2022/05/02 11:03:05;;;;;;;17.15;10.35;;;;;;;;;;5000910;28;20037;-71
2022/05/02 11:05:43;;;;;;;16.63;11.23;;;;;;;;;;4999828;28;20044;-70
2022/05/02 11:08:12;;;;;;;16.13;11.32;;;;;;;;;;4998061;28;20080;-70
2022/05/02 11:11:07;;;;;;;13.60;10.57;;;;;;;;;;4996810;28;20040;-70
2022/05/02 11:14:17;;;;;;;12.80;10.63;;;;;;;;;;4983253;28;20429;-70
2022/05/02 11:16:59;;;;;;;12.57;10.30;;;;;;;;;;4979921;28;20128;-69
2022/05/02 11:23:07;;;;;;;13.30;11.13;;;;;;;;;;4929024;28;20050;-69
2022/05/02 11:25:57;;;;;;;14.00;11.05;;;;;;;;;;5000010;28;20112;-69
2022/05/02 11:28:34;;;;;;;13.57;10.57;;;;;;;;;;5000370;28;20038;-70
2022/05/02 11:31:32;;;;;;;12.45;10.35;;;;;;;;;;4999730;28;20034;-70
2022/05/02 11:34:10;;;;;;;12.60;10.00;;;;;;;;;;4995373;28;20494;-70
2022/05/02 11:36:43;;;;;;;12.43;10.27;;;;;;;;;;5000195;28;20532;-70
2022/05/02 11:39:11;;;;;;;13.57;9.93;;;;;;;;;;5000462;28;20221;-70
2022/05/02 11:41:44;;;;;;;17.05;10.32;;;;;;;;;;5003077;28;20076;-70
2022/05/02 11:44:13;;;;;;;13.00;9.95;;;;;;;;;;5002861;28;20041;-69
2022/05/02 11:46:55;;;;;;;10.40;9.27;;;;;;;;;;5004601;28;20050;-70
2022/05/02 11:49:38;;;;;;;10.95;9.02;;;;;;;;;;5003125;28;20037;-69
2022/05/02 11:52:11;;;;;;;10.45;9.32;;;;;;;;;;5003890;28;20061;-68
2022/05/02 11:54:39;;;;;;;11.25;9.98;;;;;;;;;;5004308;28;20498;-69
2022/05/02 11:57:22;;;;;;;9.73;8.55;;;;;;;;;;5003567;28;20071;-69
2022/05/02 12:00:00;;;;;;;10.70;7.72;;;;;;;;;;5003222;28;20479;-69
2022/05/02 12:02:41;;;;;;;13.27;8.98;;;;;;;;;;5002337;28;20116;-69
2022/05/02 12:05:10;;;;;;;10.43;8.95;;;;;;;;;;5001831;28;20030;-69
2022/05/02 12:07:38;;;;;;;9.88;8.45;;;;;;;;;;5001407;28;20038;-70
2022/05/02 12:10:08;;;;;;;9.90;8.52;;;;;;;;;;5002323;28;20061;-70
2022/05/02 12:12:35;;;;;;;11.43;10.20;;;;;;;;;;4999463;28;20056;-70
2022/05/02 12:15:10;;;;;;;13.73;10.80;;;;;;;;;;5001797;28;20049;-69
2022/05/02 12:17:55;;;;;;;11.77;10.02;;;;;;;;;;5003494;28;20457;-68
2022/05/02 12:20:32;;;;;;;14.15;11.00;;;;;;;;;;5003604;28;20092;-69
2022/05/02 12:23:12;;;;;;;14.05;10.70;;;;;;;;;;5003288;28;20148;-70
2022/05/02 12:25:49;;;;;;;10.38;9.25;;;;;;;;;;5003825;28;20042;-68
2022/05/02 12:28:16;;;;;;;11.88;10.07;;;;;;;;;;5003469;28;20033;-68
2022/05/02 12:30:42;;;;;;;14.77;9.75;;;;;;;;;;5003195;28;20053;-68
2022/05/02 12:33:08;;;;;;;12.55;9.73;;;;;;;;;;5004176;28;20029;-68
2022/05/02 12:35:40;;;;;;;11.05;9.95;;;;;;;;;;5002937;28;20091;-68
2022/05/02 12:38:24;;;;;;;;;;;;;;;;;;5000533;28;20026;-68
2022/05/02 12:40:52;;;;;;;11.73;10.25;;;;;;;;;;5002058;28;19924;-68
2022/05/02 12:43:40;;;;;;;12.00;9.52;;;;;;;;;;5002720;28;21064;-68
2022/05/02 12:46:10;;;;;;;13.15;9.20;;;;;;;;;;4999833;28;20115;-68
2022/05/02 12:48:41;;;;;;;10.55;9.05;;;;;;;;;;5001640;28;20391;-69
2022/05/02 12:51:15;;;;;;;11.80;9.67;;;;;;;;;;5001524;28;20060;-69
2022/05/02 12:56:25;;;;;;;9.05;8.15;;;;;;;;;;5001813;28;20127;-69
2022/05/02 13:01:43;;;;;;;7.38;6.68;;;;;;;;;;5002787;28;20057;-69
2022/05/02 13:04:20;;;;;;;8.00;6.70;;;;;;;;;;5002991;28;20122;-70
2022/05/02 13:06:47;;;;;;;7.60;6.88;;;;;;;;;;5002549;28;20052;-70
2022/05/02 13:09:18;;;;;;;7.00;6.25;;;;;;;;;;5001874;28;20063;-71
2022/05/02 13:11:45;;;;;;;;;;;;;;;;;;5003859;28;20117;-71
2022/05/02 13:14:25;;;;;;;12.25;9.48;;;;;;;;;;5002764;28;20013;-70
2022/05/02 13:16:52;;;;;;;12.13;9.40;;;;;;;;;;5002589;28;20046;-71
2022/05/02 13:19:30;;;;;;;10.40;8.75;;;;;;;;;;5000784;28;20037;-71
2022/05/02 13:21:56;;;;;;;10.55;9.45;;;;;;;;;;5002391;28;20103;-73
2022/05/02 13:24:22;;;;;;;11.65;9.63;;;;;;;;;;5003061;28;20041;-72
2022/05/02 13:27:19;;;;;;;10.15;8.75;;;;;;;;;;4985396;28;20037;-69
2022/05/02 13:30:03;;;;;;;10.65;8.40;;;;;;;;;;4991219;28;20053;-71
2022/05/02 13:32:34;;;;;;;9.20;8.23;;;;;;;;;;5002788;28;20490;-70
2022/05/02 13:35:00;;;;;;;9.32;8.43;;;;;;;;;;5003230;28;20083;-71
2022/05/02 13:37:37;;;;;;;8.20;6.82;;;;;;;;;;5002746;28;20442;-71
2022/05/02 13:40:02;;;;;;;8.25;6.78;;;;;;;;;;5002703;28;20041;-72
2022/05/02 13:42:46;;;;;;;6.30;5.03;;;;;;;;;;5001971;28;20041;-71
2022/05/02 13:45:38;;;;;;;5.57;4.65;;;;;;;;;;5002700;28;20397;-71
2022/05/02 13:48:06;;;;;;;;;;;;;;;;;;5002091;28;20112;-71
2022/05/02 13:50:39;;;;;;;5.85;4.68;;;;;;;;;;5001972;28;20011;-71
2022/05/02 13:53:34;;;;;;;4.07;3.53;;;;;;;;;;5001775;28;20046;-70
2022/05/02 13:56:21;;;;;;;4.10;3.70;;;;;;;;;;4990565;28;20053;-68
2022/05/02 13:58:59;;;;;;;4.95;4.35;;;;;;;;;;5002023;28;20134;-70
2022/05/02 14:01:43;;;;;;;5.78;4.57;;;;;;;;;;4999446;28;20569;-70
2022/05/02 14:04:21;;;;;;;11.60;4.10;;;;;;;;;;5000615;28;20057;-70
2022/05/02 14:09:41;;;;;;;5.03;4.53;;;;;;;;;;4998925;28;20100;-71
2022/05/02 14:12:28;;;;;;;5.60;4.32;;;;;;;;;;5000494;28;20045;-71
2022/05/02 14:15:15;;;;;;;4.43;4.03;;;;;;;;;;5000440;28;20041;-69
2022/05/02 14:17:46;;;;;;;3.80;3.47;;;;;;;;;;5000231;28;20069;-70
2022/05/02 14:20:24;;;;;;;4.57;4.18;;;;;;;;;;4999500;28;20041;-71
2022/05/02 14:23:02;;;;;;;3.50;3.20;;;;;;;;;;5000843;28;20030;-73
2022/05/02 14:25:33;;;;;;;5.97;3.08;;;;;;;;;;4998945;28;20042;-70
2022/05/02 14:28:09;;;;;;;3.53;3.22;;;;;;;;;;5000027;28;20115;-72
2022/05/02 14:30:38;;;;;;;5.47;3.65;;;;;;;;;;4999407;28;20037;-70
2022/05/02 14:33:05;;;;;;;3.92;3.15;;;;;;;;;;5000008;28;20096;-70
2022/05/02 14:35:43;;;;;;;5.30;3.40;;;;;;;;;;4998811;28;20653;-70
2022/05/02 14:38:10;;;;;;;4.38;3.00;;;;;;;;;;4999389;28;20045;-71
2022/05/02 14:40:38;;;;;;;4.38;3.95;;;;;;;;;;5000452;28;20041;-71
2022/05/02 14:43:04;;;;;;;4.25;3.90;;;;;;;;;;5000427;28;20051;-69
2022/05/02 14:45:30;;;;;;;3.78;3.35;;;;;;;;;;5000505;28;20042;-69
2022/05/02 14:51:02;;;;;;;5.07;2.78;;;;;;;;;;5360160;22;20117;-68
2022/05/02 14:53:42;;;;;;;2.90;2.65;;;;;;;;;;4975343;28;20069;-69
2022/05/02 14:59:59;;;;;;;3.83;2.20;;;;;;;;;;5061708;23;20088;-69
2022/05/02 15:02:27;;;;;;;2.40;2.20;;;;;;;;;;4989711;28;20517;-69
2022/05/02 15:05:00;;;;;;;7.40;2.70;;;;;;;;;;4988374;28;20056;-68
2022/05/02 15:07:35;;;;;;;2.60;2.40;;;;;;;;;;4987788;28;20042;-68
2022/05/02 15:10:39;;;;;;;2.10;1.90;;;;;;;;;;4990930;28;20149;-68
2022/05/02 15:13:25;;;;;;;3.10;2.40;;;;;;;;;;4989488;28;20149;-69
2022/05/02 15:16:03;;;;;;;4.47;3.60;;;;;;;;;;4986986;28;20054;-70
2022/05/02 15:22:11;;;;;;;3.55;3.22;;;;;;;;;;4980064;28;20380;-69
2022/05/02 15:24:52;;;;;;;3.50;3.20;;;;;;;;;;4980876;28;20061;-69
2022/05/02 15:27:24;;;;;;;3.60;3.30;;;;;;;;;;4988981;28;20038;-68
2022/05/02 15:38:58;;;;;;;3.75;3.45;;;;;;;;;;4983388;28;20047;-68
2022/05/02 15:41:58;;;;;;;4.55;3.47;;;;;;;;;;4980977;28;20782;-68
2022/05/02 15:44:28;;;;;;;4.25;2.97;;;;;;;;;;4938712;28;20057;-68
2022/05/02 15:46:59;;;;;;;3.20;2.90;;;;;;;;;;4983851;28;20391;-68
2022/05/02 15:49:26;;;;;;;3.38;3.08;;;;;;;;;;4981433;28;20121;-68
2022/05/02 15:52:01;;;;;;;5.80;2.83;;;;;;;;;;4980943;28;20566;-68
2022/05/02 15:54:26;;;;;;;5.25;3.42;;;;;;;;;;4980300;28;20100;-68
2022/05/02 15:56:58;;;;;;;3.40;3.10;;;;;;;;;;4980393;28;20506;-69
2022/05/02 15:59:33;;;;;;;3.53;3.22;;;;;;;;;;4985605;28;20042;-68
2022/05/02 16:02:01;;;;;;;3.80;3.50;;;;;;;;;;4982412;28;20149;-68
2022/05/02 16:04:28;;;;;;;5.65;4.03;;;;;;;;;;4987664;28;20045;-68